createdAt,value
2022-09-07T00:01:07.641Z,17.70
2022-09-07T00:03:35.735Z,17.30
2022-09-07T00:06:11.956Z,17.87
2022-09-07T00:08:42.291Z,18.93
2022-09-07T00:11:15.117Z,17.10
2022-09-07T00:13:44.546Z,16.40
2022-09-07T00:16:20.937Z,17.47
2022-09-07T00:18:48.455Z,18.67
2022-09-07T00:21:18.436Z,17.87
2022-09-07T00:23:46.091Z,19.43
2022-09-07T00:26:23.000Z,21.13
2022-09-07T00:28:51.265Z,18.50
2022-09-07T00:31:21.914Z,25.10
2022-09-07T00:33:51.015Z,19.53
2022-09-07T00:36:20.820Z,18.00
2022-09-07T00:38:48.220Z,17.07
2022-09-07T00:41:17.001Z,17.97
2022-09-07T00:43:57.581Z,18.90
2022-09-07T00:46:34.117Z,19.10
2022-09-07T00:49:10.871Z,17.40
2022-09-07T00:52:01.826Z,17.37
2022-09-07T00:54:47.006Z,18.43
2022-09-07T00:57:14.925Z,15.97
2022-09-07T00:59:48.149Z,17.93
2022-09-07T01:02:17.586Z,20.57
2022-09-07T01:04:53.325Z,18.00
2022-09-07T01:07:20.372Z,16.67
2022-09-07T01:09:48.180Z,17.73
2022-09-07T01:12:15.370Z,17.97
2022-09-07T01:14:49.235Z,17.90
2022-09-07T01:18:07.900Z,17.97
2022-09-07T01:20:53.405Z,19.67
2022-09-07T01:23:35.195Z,18.30
2022-09-07T01:26:45.341Z,20.00
2022-09-07T01:29:15.401Z,18.60
2022-09-07T01:32:10.841Z,18.90
2022-09-07T01:34:39.562Z,19.40
2022-09-07T01:37:30.746Z,17.90
2022-09-07T01:40:19.486Z,17.60
2022-09-07T01:42:56.916Z,18.30
2022-09-07T01:45:29.717Z,16.67
2022-09-07T01:48:05.107Z,16.13
2022-09-07T01:50:31.955Z,17.63
2022-09-07T01:53:23.716Z,18.43
2022-09-07T01:56:03.482Z,17.37
2022-09-07T01:58:58.925Z,18.17
2022-09-07T02:01:35.031Z,21.03
2022-09-07T02:04:12.044Z,17.50
2022-09-07T02:07:03.093Z,17.47
2022-09-07T02:09:30.005Z,15.77
2022-09-07T02:12:03.084Z,15.83
2022-09-07T02:14:38.616Z,17.43
2022-09-07T02:17:23.575Z,19.43
2022-09-07T02:20:01.676Z,19.50
2022-09-07T02:22:33.402Z,17.90
2022-09-07T02:25:04.266Z,20.23
2022-09-07T02:27:43.176Z,18.53
2022-09-07T02:30:11.501Z,17.27
2022-09-07T02:32:38.751Z,19.57
2022-09-07T02:35:07.517Z,18.10
2022-09-07T02:37:36.196Z,19.10
2022-09-07T02:40:04.965Z,19.57
2022-09-07T02:42:34.765Z,17.23
2022-09-07T02:45:06.181Z,18.00
2022-09-07T02:48:10.635Z,16.30
2022-09-07T02:51:07.291Z,18.97
2022-09-07T02:54:18.660Z,18.20
2022-09-07T02:57:09.990Z,18.27
2022-09-07T03:00:07.151Z,18.80
2022-09-07T03:03:22.769Z,19.30
2022-09-07T03:05:56.104Z,18.60
2022-09-07T03:08:38.649Z,19.13
2022-09-07T03:11:07.903Z,18.97
2022-09-07T03:13:34.949Z,20.07
2022-09-07T03:16:02.483Z,19.73
2022-09-07T03:18:29.808Z,19.47
2022-09-07T03:20:56.963Z,21.20
2022-09-07T03:23:24.584Z,19.00
2022-09-07T03:25:51.580Z,19.00
2022-09-07T03:28:19.180Z,19.80
2022-09-07T03:30:49.622Z,18.17
2022-09-07T03:33:17.725Z,19.80
2022-09-07T03:35:47.107Z,19.20
2022-09-07T03:38:14.132Z,19.43
2022-09-07T03:40:41.104Z,18.00
2022-09-07T03:43:08.170Z,18.20
2022-09-07T03:45:35.415Z,17.80
2022-09-07T03:48:02.755Z,19.37
2022-09-07T03:50:29.794Z,17.73
2022-09-07T03:52:56.967Z,17.60
2022-09-07T03:55:23.970Z,16.67
2022-09-07T03:57:50.948Z,16.33
2022-09-07T04:00:18.028Z,13.37
2022-09-07T04:02:45.125Z,14.60
2022-09-07T04:05:12.155Z,14.83
2022-09-07T04:07:39.229Z,13.90
2022-09-07T04:10:07.270Z,16.20
2022-09-07T04:12:34.293Z,15.80
2022-09-07T04:15:01.329Z,16.27
2022-09-07T04:17:28.369Z,15.70
2022-09-07T04:19:55.905Z,14.93
2022-09-07T04:22:23.048Z,14.00
2022-09-07T04:24:50.198Z,14.83
2022-09-07T04:27:17.214Z,14.10
2022-09-07T04:29:44.284Z,14.83
2022-09-07T04:32:15.535Z,14.60
2022-09-07T04:34:42.938Z,14.27
2022-09-07T04:37:10.054Z,14.97
2022-09-07T04:39:37.067Z,14.00
2022-09-07T04:42:04.519Z,14.27
2022-09-07T04:44:31.499Z,15.20
2022-09-07T04:46:58.615Z,16.13
2022-09-07T04:49:25.693Z,15.27
2022-09-07T04:51:52.621Z,14.40
2022-09-07T04:54:19.613Z,13.97
2022-09-07T04:56:46.749Z,14.40
2022-09-07T04:59:13.900Z,15.43
2022-09-07T05:01:41.047Z,15.40
2022-09-07T05:04:08.153Z,15.00
2022-09-07T05:06:35.251Z,16.83
2022-09-07T05:09:02.679Z,16.93
2022-09-07T05:11:30.340Z,16.70
2022-09-07T05:14:00.219Z,16.07
2022-09-07T05:16:28.487Z,19.10
2022-09-07T05:19:01.205Z,16.97
2022-09-07T05:21:32.148Z,18.67
2022-09-07T05:24:01.541Z,17.77
2022-09-07T05:26:32.970Z,20.30
2022-09-07T05:31:50.141Z,21.33
2022-09-07T05:34:33.210Z,22.67
2022-09-07T05:37:01.969Z,23.27
2022-09-07T05:39:29.409Z,27.90
2022-09-07T05:41:56.599Z,33.27
2022-09-07T05:47:11.419Z,34.30
2022-09-07T05:49:39.224Z,37.87
2022-09-07T05:52:06.448Z,45.80
2022-09-07T05:54:33.427Z,41.70
2022-09-07T05:57:00.470Z,50.30
2022-09-07T05:59:27.434Z,36.77
2022-09-07T06:01:54.537Z,37.27
2022-09-07T06:04:21.550Z,39.70
2022-09-07T06:07:17.702Z,41.93
2022-09-07T06:09:35.731Z,33.20
2022-09-07T06:12:05.535Z,31.10
2022-09-07T06:14:34.313Z,37.30
2022-09-07T06:17:01.393Z,38.90
2022-09-07T06:19:28.364Z,33.57
2022-09-07T06:21:55.399Z,32.27
2022-09-07T06:24:22.429Z,30.87
2022-09-07T06:26:49.435Z,32.20
2022-09-07T06:29:16.670Z,37.67
2022-09-07T06:34:30.980Z,32.10
2022-09-07T06:36:58.070Z,32.27
2022-09-07T06:39:25.152Z,32.70
2022-09-07T06:41:59.273Z,38.87
2022-09-07T06:44:26.458Z,39.13
2022-09-07T06:49:28.357Z,39.10
2022-09-07T06:51:55.643Z,39.70
2022-09-07T06:57:10.144Z,35.70
2022-09-07T06:59:38.494Z,37.63
2022-09-07T07:02:07.390Z,37.23
2022-09-07T07:04:40.354Z,33.40
2022-09-07T07:07:13.108Z,36.07
2022-09-07T07:09:41.556Z,32.20
2022-09-07T07:12:10.011Z,33.50
2022-09-07T07:14:39.573Z,33.50
2022-09-07T07:17:08.448Z,30.60
2022-09-07T07:19:35.438Z,31.77
2022-09-07T07:22:14.392Z,32.43
2022-09-07T07:24:49.574Z,32.23
2022-09-07T07:27:17.617Z,33.30
2022-09-07T07:29:45.425Z,32.03
2022-09-07T07:32:12.468Z,32.50
2022-09-07T07:34:39.479Z,31.80
2022-09-07T07:37:06.575Z,32.43
2022-09-07T07:42:21.219Z,33.70
2022-09-07T07:44:48.821Z,32.13
2022-09-07T07:47:16.194Z,34.17
2022-09-07T07:49:43.137Z,33.80
2022-09-07T07:54:57.124Z,34.83
2022-09-07T07:57:24.194Z,36.73
2022-09-07T07:59:51.203Z,37.60
2022-09-07T08:02:18.271Z,37.83
2022-09-07T08:04:45.747Z,36.33
2022-09-07T08:07:13.831Z,35.83
2022-09-07T08:09:45.793Z,36.00
2022-09-07T08:12:19.378Z,32.33
2022-09-07T08:14:49.322Z,30.77
2022-09-07T08:17:17.913Z,30.77
2022-09-07T08:19:45.482Z,28.97
2022-09-07T08:22:13.484Z,31.00
2022-09-07T08:24:40.626Z,29.87
2022-09-07T08:27:08.393Z,29.67
2022-09-07T08:29:36.813Z,27.13
2022-09-07T08:32:06.987Z,27.33
2022-09-07T08:34:37.303Z,27.50
2022-09-07T08:37:04.352Z,28.00
2022-09-07T08:39:31.338Z,28.20
2022-09-07T08:42:20.059Z,28.97
2022-09-07T08:44:59.381Z,25.73
2022-09-07T08:47:52.078Z,26.57
2022-09-07T08:50:29.123Z,27.30
2022-09-07T08:53:09.054Z,27.07
2022-09-07T08:55:52.179Z,24.73
2022-09-07T08:58:50.790Z,25.17
2022-09-07T09:01:35.773Z,23.30
2022-09-07T09:04:21.980Z,23.70
2022-09-07T09:07:27.338Z,22.23
2022-09-07T09:10:29.694Z,22.40
2022-09-07T09:13:21.454Z,22.10
2022-09-07T09:16:03.077Z,22.57
2022-09-07T09:18:47.962Z,21.97
2022-09-07T09:21:20.072Z,20.80
2022-09-07T09:23:52.582Z,22.00
2022-09-07T09:26:28.658Z,22.07
2022-09-07T09:28:56.483Z,22.87
2022-09-07T09:31:36.196Z,22.10
2022-09-07T09:34:11.366Z,22.10
2022-09-07T09:36:51.313Z,19.47
2022-09-07T09:39:35.791Z,18.27
2022-09-07T09:42:11.690Z,20.30
2022-09-07T09:44:39.567Z,18.03
2022-09-07T09:49:54.957Z,19.43
2022-09-07T09:52:29.878Z,17.57
2022-09-07T09:55:17.183Z,17.20
2022-09-07T10:04:35.589Z,16.17
2022-09-07T10:07:25.977Z,16.40
2022-09-07T10:09:55.277Z,18.27
2022-09-07T10:12:37.818Z,16.67
2022-09-07T10:15:29.857Z,17.20
2022-09-07T10:17:58.722Z,18.83
2022-09-07T10:20:38.827Z,16.33
2022-09-07T10:23:07.022Z,14.10
2022-09-07T10:25:41.720Z,14.50
2022-09-07T10:28:11.764Z,12.40
2022-09-07T10:31:14.083Z,15.60
2022-09-07T10:36:56.772Z,13.43
2022-09-07T10:39:34.942Z,11.43
2022-09-07T10:42:31.222Z,13.40
2022-09-07T10:45:05.372Z,13.17
2022-09-07T10:47:50.133Z,13.43
2022-09-07T10:50:38.512Z,12.30
2022-09-07T10:53:47.235Z,10.80
2022-09-07T10:56:41.768Z,12.20
2022-09-07T11:06:15.563Z,12.27
2022-09-07T11:09:18.011Z,13.57
2022-09-07T11:12:00.944Z,11.00
2022-09-07T11:14:29.973Z,12.90
2022-09-07T11:17:16.233Z,11.60
2022-09-07T11:19:53.121Z,12.20
2022-09-07T11:22:36.609Z,11.80
2022-09-07T11:25:46.560Z,11.43
2022-09-07T11:28:24.824Z,9.90
2022-09-07T11:31:01.230Z,11.90
2022-09-07T11:33:35.983Z,11.50
2022-09-07T11:36:21.350Z,11.67
2022-09-07T11:39:01.213Z,11.10
2022-09-07T11:41:37.193Z,11.17
2022-09-07T11:44:30.434Z,10.60
2022-09-07T11:47:09.149Z,7.60
2022-09-07T11:49:36.074Z,8.67
2022-09-07T11:52:35.353Z,9.07
2022-09-07T11:55:20.719Z,9.27
2022-09-07T11:58:08.835Z,8.73
2022-09-07T12:01:31.615Z,11.47
2022-09-07T12:04:29.604Z,10.17
2022-09-07T12:07:33.690Z,9.43
2022-09-07T12:10:24.876Z,9.33
2022-09-07T12:13:21.998Z,9.50
2022-09-07T12:16:17.038Z,10.70
2022-09-07T12:18:59.427Z,9.70
2022-09-07T12:21:36.040Z,9.53
2022-09-07T12:24:04.503Z,9.23
2022-09-07T12:26:34.622Z,8.00
2022-09-07T12:29:01.429Z,9.23
2022-09-07T12:32:07.347Z,9.00
2022-09-07T12:34:35.385Z,8.40
2022-09-07T12:37:27.214Z,8.63
2022-09-07T12:40:28.343Z,8.57
2022-09-07T12:43:13.446Z,9.37
2022-09-07T12:45:40.434Z,9.10
2022-09-07T12:48:16.284Z,10.10
2022-09-07T12:51:59.594Z,8.60
2022-09-07T12:54:42.787Z,7.53
2022-09-07T12:57:34.579Z,9.37
2022-09-07T13:00:11.909Z,7.43
2022-09-07T13:09:33.862Z,6.90
2022-09-07T13:15:12.650Z,6.00
2022-09-07T13:17:56.091Z,7.90
2022-09-07T13:20:30.355Z,7.00
2022-09-07T13:23:23.129Z,11.27
2022-09-07T13:25:54.555Z,7.23
2022-09-07T13:28:48.181Z,6.87
2022-09-07T13:32:12.495Z,6.77
2022-09-07T13:35:01.038Z,5.40
2022-09-07T13:37:31.058Z,6.33
2022-09-07T13:39:59.161Z,7.57
2022-09-07T13:42:32.198Z,6.80
2022-09-07T13:45:07.196Z,6.00
2022-09-07T13:48:06.457Z,6.80
2022-09-07T13:50:47.401Z,6.47
2022-09-07T13:53:43.421Z,6.40
2022-09-07T13:56:20.106Z,5.30
2022-09-07T13:58:52.183Z,5.43
2022-09-07T14:01:23.578Z,7.40
2022-09-07T14:04:07.605Z,12.80
2022-09-07T14:06:37.507Z,6.30
2022-09-07T14:09:14.272Z,6.50
2022-09-07T14:11:42.503Z,7.97
2022-09-07T14:14:22.124Z,8.47
2022-09-07T14:16:58.790Z,5.47
2022-09-07T14:19:50.661Z,6.03
2022-09-07T14:22:32.173Z,6.60
2022-09-07T14:25:03.212Z,6.80
2022-09-07T14:27:40.081Z,5.10
2022-09-07T14:30:19.314Z,6.10
2022-09-07T14:33:06.278Z,5.60
2022-09-07T14:35:37.373Z,5.50
2022-09-07T14:41:16.089Z,5.70
2022-09-07T14:44:00.188Z,6.53
2022-09-07T14:46:34.677Z,5.13
2022-09-07T14:49:20.587Z,5.03
2022-09-07T14:51:49.317Z,6.03
2022-09-07T14:54:34.162Z,7.63
2022-09-07T14:57:09.812Z,5.60
2022-09-07T14:59:39.911Z,5.67
2022-09-07T15:02:19.272Z,5.60
2022-09-07T15:05:12.997Z,4.67
2022-09-07T15:07:46.721Z,5.27
2022-09-07T15:10:23.559Z,5.00
2022-09-07T15:12:57.760Z,5.30
2022-09-07T15:15:37.165Z,6.20
2022-09-07T15:18:44.638Z,4.60
2022-09-07T15:21:11.846Z,4.50
2022-09-07T15:23:39.785Z,7.47
2022-09-07T15:27:01.872Z,5.00
2022-09-07T15:29:13.706Z,4.70
2022-09-07T15:31:47.292Z,5.50
2022-09-07T15:34:21.607Z,5.67
2022-09-07T15:36:52.248Z,5.30
2022-09-07T15:39:27.732Z,5.90
2022-09-07T15:41:55.047Z,10.40
2022-09-07T15:44:26.040Z,5.50
2022-09-07T15:49:50.008Z,5.93
2022-09-07T15:52:18.117Z,5.47
2022-09-07T15:54:45.212Z,6.37
2022-09-07T15:59:59.059Z,9.37
2022-09-07T16:05:13.488Z,7.17
2022-09-07T16:10:31.186Z,6.83
2022-09-07T16:13:01.803Z,7.73
2022-09-07T16:15:31.707Z,5.90
2022-09-07T16:17:58.713Z,5.93
2022-09-07T16:20:26.855Z,5.97
2022-09-07T16:25:42.497Z,5.20
2022-09-07T16:28:10.917Z,7.10
2022-09-07T16:30:41.472Z,6.37
2022-09-07T16:33:08.618Z,6.47
2022-09-07T16:35:35.653Z,5.93
2022-09-07T16:40:51.255Z,7.87
2022-09-07T16:43:18.310Z,11.73
2022-09-07T16:48:35.759Z,6.47
2022-09-07T16:51:05.100Z,7.20
2022-09-07T16:53:35.847Z,10.00
2022-09-07T16:56:12.393Z,7.03
2022-09-07T16:58:52.890Z,8.17
2022-09-07T17:01:24.792Z,6.33
2022-09-07T17:03:53.000Z,6.80
2022-09-07T17:06:22.729Z,7.43
2022-09-07T17:08:49.908Z,7.13
2022-09-07T17:11:23.808Z,7.10
2022-09-07T17:13:52.165Z,8.10
2022-09-07T17:16:24.016Z,6.63
2022-09-07T17:21:40.834Z,14.03
2022-09-07T17:24:10.484Z,7.83
2022-09-07T17:26:38.764Z,6.77
2022-09-07T17:29:07.556Z,7.37
2022-09-07T17:34:25.658Z,7.10
2022-09-07T17:36:52.524Z,7.60
2022-09-07T17:39:19.926Z,6.57
2022-09-07T17:41:49.499Z,6.93
2022-09-07T17:44:16.469Z,6.63
2022-09-07T17:46:43.849Z,6.27
2022-09-07T17:49:16.912Z,7.67
2022-09-07T17:51:47.075Z,8.43
2022-09-07T17:54:17.848Z,7.20
2022-09-07T17:56:46.075Z,6.77
2022-09-07T18:02:01.115Z,7.67
2022-09-07T18:04:28.646Z,7.37
2022-09-07T18:06:56.744Z,7.53
2022-09-07T18:09:24.216Z,9.90
2022-09-07T18:11:51.313Z,7.30
2022-09-07T18:14:19.449Z,8.53
2022-09-07T18:16:49.197Z,7.50
2022-09-07T18:19:18.296Z,10.70
2022-09-07T18:21:46.341Z,10.73
2022-09-07T18:24:22.216Z,7.37
2022-09-07T18:26:52.650Z,7.40
2022-09-07T18:29:29.980Z,8.20
2022-09-07T18:32:08.539Z,7.50
2022-09-07T18:34:38.212Z,7.30
2022-09-07T18:37:06.119Z,7.60
2022-09-07T18:39:35.576Z,7.53
2022-09-07T18:42:03.883Z,7.80
2022-09-07T18:47:28.053Z,9.37
2022-09-07T18:49:57.024Z,8.30
2022-09-07T18:55:11.490Z,8.63
2022-09-07T18:57:39.014Z,9.50
2022-09-07T19:00:09.923Z,9.63
2022-09-07T19:02:39.510Z,11.33
2022-09-07T19:07:54.604Z,10.83
2022-09-07T19:10:21.763Z,8.53
2022-09-07T19:12:48.677Z,9.93
2022-09-07T19:15:16.487Z,9.80
2022-09-07T19:17:45.222Z,9.67
2022-09-07T19:20:14.098Z,10.23
2022-09-07T19:22:43.227Z,9.70
2022-09-07T19:25:10.559Z,9.50
2022-09-07T19:27:37.533Z,10.80
2022-09-07T19:30:04.968Z,10.00
2022-09-07T19:32:34.327Z,13.40
2022-09-07T19:35:01.298Z,9.90
2022-09-07T19:37:32.896Z,10.10
2022-09-07T19:40:02.070Z,10.20
2022-09-07T19:42:29.719Z,10.27
2022-09-07T19:44:59.712Z,10.23
2022-09-07T19:47:26.982Z,9.83
2022-09-07T19:49:54.728Z,10.23
2022-09-07T19:52:24.610Z,10.93
2022-09-07T19:54:51.639Z,10.43
2022-09-07T19:57:18.533Z,10.50
2022-09-07T19:59:45.917Z,10.50
2022-09-07T20:02:13.527Z,11.67
2022-09-07T20:04:41.430Z,12.50
2022-09-07T20:07:08.635Z,12.17
2022-09-07T20:09:36.654Z,12.00
2022-09-07T20:12:04.010Z,11.60
2022-09-07T20:14:30.999Z,11.60
2022-09-07T20:16:57.989Z,13.30
2022-09-07T20:19:24.945Z,13.33
2022-09-07T20:21:55.945Z,13.33
2022-09-07T20:24:23.736Z,11.87
2022-09-07T20:26:51.168Z,12.97
2022-09-07T20:29:33.816Z,13.60
2022-09-07T20:32:01.761Z,11.70
2022-09-07T20:34:29.041Z,12.30
2022-09-07T20:36:57.177Z,12.93
2022-09-07T20:39:24.948Z,12.83
2022-09-07T20:41:52.046Z,11.80
2022-09-07T20:44:19.556Z,13.17
2022-09-07T20:46:46.707Z,14.03
2022-09-07T20:49:13.697Z,14.13
2022-09-07T20:51:40.724Z,13.13
2022-09-07T20:54:07.629Z,19.13
2022-09-07T20:56:35.276Z,13.60
2022-09-07T20:59:04.150Z,14.10
2022-09-07T21:01:32.962Z,15.43
2022-09-07T21:04:01.276Z,14.33
2022-09-07T21:06:30.034Z,14.67
2022-09-07T21:08:58.237Z,14.80
2022-09-07T21:11:29.074Z,14.00
2022-09-07T21:14:11.754Z,13.23
2022-09-07T21:16:40.226Z,15.10
2022-09-07T21:19:11.129Z,14.80
2022-09-07T21:21:41.957Z,15.97
2022-09-07T21:24:22.311Z,14.63
2022-09-07T21:26:51.198Z,16.77
2022-09-07T21:29:24.498Z,14.50
2022-09-07T21:31:54.768Z,16.80
2022-09-07T21:34:23.003Z,13.33
2022-09-07T21:36:50.577Z,14.93
2022-09-07T21:39:17.923Z,13.33
2022-09-07T21:41:45.855Z,14.00
2022-09-07T21:44:15.287Z,14.77
2022-09-07T21:46:44.334Z,12.67
2022-09-07T21:49:11.991Z,13.67
2022-09-07T21:51:39.168Z,12.77
2022-09-07T21:54:06.414Z,12.93
2022-09-07T21:56:33.372Z,13.50
2022-09-07T21:59:02.157Z,13.90
2022-09-07T22:01:31.019Z,13.20
2022-09-07T22:04:03.956Z,11.33
2022-09-07T22:06:32.672Z,12.70
2022-09-07T22:09:01.385Z,14.03
2022-09-07T22:11:30.551Z,13.50
2022-09-07T22:14:01.955Z,13.73
2022-09-07T22:16:30.308Z,15.53
2022-09-07T22:18:57.765Z,12.37
2022-09-07T22:21:28.464Z,13.67
2022-09-07T22:23:59.835Z,11.90
2022-09-07T22:26:30.964Z,12.70
2022-09-07T22:28:58.893Z,12.93
2022-09-07T22:31:37.172Z,13.07
2022-09-07T22:34:08.573Z,13.60
2022-09-07T22:36:40.081Z,12.53
2022-09-07T22:39:12.266Z,13.27
2022-09-07T22:41:40.740Z,12.63
2022-09-07T22:44:13.047Z,12.93
2022-09-07T22:46:43.187Z,13.70
2022-09-07T22:49:13.514Z,13.33
2022-09-07T22:51:40.464Z,13.53
2022-09-07T22:54:08.029Z,12.87
2022-09-07T22:56:38.432Z,13.53
2022-09-07T22:59:07.985Z,13.27
2022-09-07T23:01:36.506Z,13.77
2022-09-07T23:04:04.996Z,14.87
2022-09-07T23:06:35.739Z,13.80
2022-09-07T23:09:11.020Z,15.03
2022-09-07T23:11:39.030Z,15.60
2022-09-07T23:14:12.154Z,14.37
2022-09-07T23:16:39.346Z,14.43
2022-09-07T23:19:06.311Z,15.47
2022-09-07T23:21:33.429Z,15.80
2022-09-07T23:24:01.199Z,16.57
2022-09-07T23:26:31.382Z,16.80
2022-09-07T23:29:01.970Z,15.00
2022-09-07T23:31:31.074Z,16.07
2022-09-07T23:33:59.846Z,14.10
2022-09-07T23:36:26.944Z,14.93
2022-09-07T23:38:58.807Z,15.10
2022-09-07T23:41:27.366Z,15.50
2022-09-07T23:43:55.588Z,14.47
2022-09-07T23:46:23.716Z,16.60
2022-09-07T23:48:51.518Z,21.73
2022-09-07T23:51:23.940Z,16.40
2022-09-07T23:53:53.186Z,16.37
2022-09-07T23:56:21.646Z,17.13
2022-09-07T23:58:48.622Z,16.27
